Time;durP1;ratioP1;P1;durP2;ratioP2;P2;SDS_P1;SDS_P2;PMS_P1;PMS_P2;Temp;Humidity;BMP_temperature;BMP_pressure;BME280_temperature;BME280_humidity;BME280_pressure;Samples;Min_cycle;Max_cycle;Signal;HPM_P1;HPM_P2
2022/01/03 00:00:42;;;;;;;8.80;5.47;;;1.00;76.80;;;;;;5056723;28;20029;-37
2022/01/03 00:03:11;;;;;;;10.88;5.38;;;1.00;77.00;;;;;;5056722;28;20435;-35
2022/01/03 00:05:38;;;;;;;9.80;5.63;;;0.90;77.10;;;;;;5056376;28;20057;-39
2022/01/03 00:08:05;;;;;;;9.05;5.72;;;1.00;77.30;;;;;;5056372;28;20033;-37
2022/01/03 00:10:33;;;;;;;8.70;5.53;;;0.90;77.30;;;;;;5056262;28;20036;-35
2022/01/03 00:13:00;;;;;;;8.23;5.45;;;0.90;77.50;;;;;;5056512;28;20082;-37
2022/01/03 00:15:26;;;;;;;7.07;4.38;;;1.00;77.60;;;;;;5056413;28;20044;-35
2022/01/03 00:17:53;;;;;;;9.20;5.28;;;1.00;77.60;;;;;;5056064;28;20047;-36
2022/01/03 00:20:21;;;;;;;7.50;4.32;;;1.00;77.70;;;;;;5056408;28;20419;-38
2022/01/03 00:22:53;;;;;;;8.80;4.53;;;1.00;77.80;;;;;;5056495;28;20045;-35
2022/01/03 00:25:21;;;;;;;10.35;4.65;;;1.00;78.00;;;;;;5056119;28;20036;-36
2022/01/03 00:28:05;;;;;;;8.52;4.32;;;1.00;78.10;;;;;;5056312;28;20329;-35
2022/01/03 00:30:35;;;;;;;8.77;4.40;;;1.00;78.20;;;;;;5056203;28;20037;-37
2022/01/03 00:33:02;;;;;;;7.50;4.53;;;1.00;78.40;;;;;;5056234;28;20020;-37
2022/01/03 00:35:28;;;;;;;8.32;3.70;;;1.10;78.50;;;;;;5056199;28;20129;-38
2022/01/03 00:37:59;;;;;;;9.82;4.30;;;1.10;78.60;;;;;;5055592;28;20040;-37
2022/01/03 00:40:25;;;;;;;8.93;4.40;;;1.10;78.70;;;;;;5056026;28;20025;-39
2022/01/03 00:42:51;;;;;;;10.23;4.57;;;1.10;78.70;;;;;;5055957;28;20298;-39
2022/01/03 00:45:17;;;;;;;8.57;4.55;;;1.10;78.70;;;;;;5055685;28;20021;-36
2022/01/03 00:47:45;;;;;;;8.43;4.60;;;1.20;78.80;;;;;;5055870;28;20048;-37
2022/01/03 00:50:13;;;;;;;5.72;3.92;;;1.20;78.70;;;;;;5056309;28;20108;-36
2022/01/03 00:52:39;;;;;;;6.70;3.92;;;1.30;78.60;;;;;;5055819;28;20029;-36
2022/01/03 00:55:06;;;;;;;6.38;3.90;;;1.30;78.60;;;;;;5055738;28;20048;-38
2022/01/03 00:58:02;;;;;;;7.72;4.07;;;1.30;78.50;;;;;;5056140;28;20344;-36
2022/01/03 01:00:31;;;;;;;5.82;3.25;;;1.40;78.60;;;;;;5055991;28;20061;-37
2022/01/03 01:03:19;;;;;;;6.72;3.55;;;1.40;78.60;;;;;;5055666;28;20024;-39
2022/01/03 01:05:49;;;;;;;5.57;3.75;;;1.40;78.60;;;;;;5055955;28;20053;-35
2022/01/03 01:08:20;;;;;;;8.63;4.07;;;1.40;78.70;;;;;;5055907;28;20672;-37
2022/01/03 01:10:46;;;;;;;;;;;1.50;78.80;;;;;;5056350;28;20409;-37
2022/01/03 01:13:13;;;;;;;5.68;3.22;;;1.40;78.70;;;;;;5055822;28;19908;-36
2022/01/03 01:15:40;;;;;;;6.50;3.72;;;1.50;79.00;;;;;;5055513;28;20033;-37
2022/01/03 01:18:07;;;;;;;4.57;3.30;;;1.50;79.00;;;;;;5055834;28;20413;-37
2022/01/03 01:20:35;;;;;;;7.30;3.50;;;1.50;79.10;;;;;;5055720;28;20025;-36
2022/01/03 01:23:02;;;;;;;5.22;3.30;;;1.50;79.20;;;;;;5055758;28;20313;-38
2022/01/03 01:28:04;;;;;;;9.18;3.85;;;1.50;79.10;;;;;;5055828;28;20078;-36
2022/01/03 01:30:30;;;;;;;5.72;3.60;;;1.60;79.20;;;;;;5055597;28;20029;-37
2022/01/03 01:33:04;;;;;;;6.03;3.50;;;1.60;79.30;;;;;;5055642;28;20036;-37
2022/01/03 01:36:02;;;;;;;5.28;3.20;;;1.60;79.20;;;;;;5055338;28;20032;-38
2022/01/03 01:38:38;;;;;;;5.82;3.80;;;1.70;79.40;;;;;;5055479;28;20029;-37
2022/01/03 01:41:06;;;;;;;7.60;3.70;;;1.70;79.40;;;;;;5055389;28;20028;-35
2022/01/03 01:43:44;;;;;;;6.80;3.63;;;1.60;79.50;;;;;;5055500;28;20029;-38
2022/01/03 01:46:14;;;;;;;7.10;3.65;;;1.70;79.70;;;;;;5055310;28;20036;-36
2022/01/03 01:48:45;;;;;;;7.30;4.20;;;1.70;79.80;;;;;;5055497;28;20025;-35
2022/01/03 01:51:12;;;;;;;;;;;1.70;79.90;;;;;;5055816;28;20041;-35
2022/01/03 01:54:05;;;;;;;8.10;4.13;;;1.70;80.10;;;;;;5055182;28;19909;-37
2022/01/03 01:56:49;;;;;;;7.25;3.83;;;1.70;80.30;;;;;;5054723;28;20056;-36
2022/01/03 01:59:25;;;;;;;5.40;3.28;;;1.70;80.70;;;;;;5059131;28;20033;-38
2022/01/03 02:02:15;;;;;;;6.93;3.78;;;1.70;81.20;;;;;;5058987;28;20033;-36
2022/01/03 02:04:47;;;;;;;6.25;3.95;;;1.80;81.40;;;;;;5059052;28;20067;-36
2022/01/03 02:07:47;;;;;;;7.43;4.10;;;1.80;81.50;;;;;;5058582;28;20033;-36
2022/01/03 02:10:14;;;;;;;7.85;4.10;;;1.80;81.50;;;;;;5058887;28;20409;-38
2022/01/03 02:12:43;;;;;;;6.43;3.72;;;1.90;82.00;;;;;;5058654;28;20040;-36
2022/01/03 02:15:13;;;;;;;9.32;4.57;;;1.90;82.50;;;;;;5058565;28;20043;-39
2022/01/03 02:17:40;;;;;;;7.10;4.40;;;1.90;82.90;;;;;;5058672;28;20112;-39
2022/01/03 02:20:21;;;;;;;7.95;4.45;;;1.90;83.30;;;;;;5058805;28;20137;-36
2022/01/03 02:22:47;;;;;;;;;;;1.90;84.00;;;;;;5059233;28;20040;-38
2022/01/03 02:25:15;;;;;;;9.77;4.75;;;1.90;84.40;;;;;;5058336;28;19948;-35
2022/01/03 02:27:43;;;;;;;6.25;4.30;;;1.90;85.10;;;;;;5058357;28;20176;-35
2022/01/03 02:30:12;;;;;;;10.07;5.40;;;1.90;85.50;;;;;;5058676;28;20037;-38
2022/01/03 02:32:39;;;;;;;8.40;4.68;;;1.90;86.10;;;;;;5058469;28;20032;-35
2022/01/03 02:35:05;;;;;;;12.25;5.15;;;1.90;86.20;;;;;;5058528;28;20040;-35
2022/01/03 02:37:31;;;;;;;9.50;4.90;;;2.00;86.50;;;;;;5058286;28;20028;-35
2022/01/03 02:39:57;;;;;;;9.35;4.57;;;1.90;86.50;;;;;;5058436;28;20314;-37
2022/01/03 02:42:25;;;;;;;9.60;4.97;;;2.00;87.40;;;;;;5058033;28;20025;-36
2022/01/03 02:45:05;;;;;;;9.20;5.30;;;2.00;86.90;;;;;;5058389;28;20129;-36
2022/01/03 02:47:31;;;;;;;9.77;4.93;;;2.00;86.90;;;;;;5057850;28;20116;-36
2022/01/03 02:49:57;;;;;;;8.25;4.72;;;2.10;87.00;;;;;;5058355;28;20171;-36
2022/01/03 02:52:22;;;;;;;9.32;5.10;;;2.10;87.20;;;;;;5057684;28;20029;-35
2022/01/03 02:54:49;;;;;;;7.18;4.40;;;2.10;87.20;;;;;;5057738;28;20108;-37
2022/01/03 02:57:15;;;;;;;7.13;4.57;;;2.10;87.10;;;;;;5057661;28;20325;-38
2022/01/03 02:59:41;;;;;;;9.48;4.85;;;2.10;87.20;;;;;;5057936;28;20021;-36
2022/01/03 03:02:07;;;;;;;7.65;4.47;;;2.20;87.10;;;;;;5057519;28;20086;-36
2022/01/03 03:04:57;;;;;;;9.13;5.63;;;2.20;87.10;;;;;;5057950;28;20037;-36
2022/01/03 03:07:25;;;;;;;9.60;5.15;;;2.20;87.00;;;;;;5057871;28;20456;-35
2022/01/03 03:09:51;;;;;;;11.18;6.20;;;2.30;87.10;;;;;;5056601;28;20044;-36
2022/01/03 03:12:18;;;;;;;10.35;5.88;;;2.30;87.00;;;;;;5057489;28;20032;-36
2022/01/03 03:14:44;;;;;;;11.50;6.20;;;2.30;87.00;;;;;;5057648;28;20155;-36
2022/01/03 03:17:10;;;;;;;11.18;5.82;;;2.30;87.00;;;;;;5057511;28;20048;-36
2022/01/03 03:19:54;;;;;;;10.63;5.38;;;2.40;86.90;;;;;;5057626;28;20421;-38
2022/01/03 03:22:20;;;;;;;10.95;5.03;;;2.40;86.70;;;;;;5057543;28;20370;-35
2022/01/03 03:24:46;;;;;;;9.27;5.70;;;2.40;86.80;;;;;;5057529;28;20043;-36
2022/01/03 03:27:12;;;;;;;9.18;5.55;;;2.40;86.90;;;;;;5057150;28;20115;-38
2022/01/03 03:29:48;;;;;;;7.80;4.85;;;2.40;87.00;;;;;;5057550;28;20094;-38
2022/01/03 03:32:14;;;;;;;10.02;5.90;;;2.50;87.20;;;;;;5057336;28;20425;-36
2022/01/03 03:34:40;;;;;;;8.88;5.18;;;2.50;87.40;;;;;;5057111;28;20037;-39
2022/01/03 03:37:06;;;;;;;9.10;5.47;;;2.50;87.40;;;;;;5056955;28;20033;-37
2022/01/03 03:39:33;;;;;;;9.90;5.50;;;2.50;87.50;;;;;;5057349;28;20077;-38
2022/01/03 03:42:00;;;;;;;11.27;5.32;;;2.50;87.60;;;;;;5057052;28;20126;-36
2022/01/03 03:44:26;;;;;;;10.10;5.50;;;2.50;87.60;;;;;;5057142;28;20171;-37
2022/01/03 03:46:52;;;;;;;10.50;6.25;;;2.50;87.80;;;;;;5056729;28;20454;-38
2022/01/03 03:49:18;;;;;;;11.23;5.80;;;2.50;87.80;;;;;;5057078;28;20033;-37
2022/01/03 03:51:43;;;;;;;11.18;6.53;;;2.60;88.00;;;;;;5056898;28;20118;-39
2022/01/03 03:54:09;;;;;;;9.85;6.00;;;2.50;87.90;;;;;;5056488;28;20029;-36
2022/01/03 03:56:35;;;;;;;11.52;6.30;;;2.60;88.00;;;;;;5056480;28;20060;-38
2022/01/03 03:59:00;;;;;;;12.20;6.15;;;2.60;88.00;;;;;;5056724;28;20033;-37
2022/01/03 04:01:26;;;;;;;9.95;5.72;;;2.60;88.00;;;;;;5056732;28;20115;-38
2022/01/03 04:03:52;;;;;;;9.98;6.18;;;2.60;88.00;;;;;;5056753;28;20324;-36
2022/01/03 04:06:19;;;;;;;11.20;6.47;;;2.70;88.00;;;;;;5056631;28;20036;-36
2022/01/03 04:08:47;;;;;;;10.18;6.45;;;2.70;88.00;;;;;;5056987;28;20060;-36
2022/01/03 04:11:13;;;;;;;9.68;5.95;;;2.70;87.90;;;;;;5056585;28;20329;-36
2022/01/03 04:13:39;;;;;;;11.40;6.22;;;2.70;87.80;;;;;;5056429;28;20037;-39
2022/01/03 04:16:06;;;;;;;9.85;6.07;;;2.70;87.80;;;;;;5056079;28;20122;-36
2022/01/03 04:18:32;;;;;;;11.05;6.15;;;2.70;87.80;;;;;;5056342;28;20029;-36
2022/01/03 04:20:58;;;;;;;12.48;6.65;;;2.80;87.90;;;;;;5055836;28;20025;-37
2022/01/03 04:23:24;;;;;;;10.80;6.90;;;2.70;87.80;;;;;;5056306;28;20044;-36
2022/01/03 04:25:51;;;;;;;13.85;6.38;;;2.80;87.90;;;;;;5056393;28;20040;-37
2022/01/03 04:28:18;;;;;;;11.18;6.22;;;2.80;87.90;;;;;;5056000;28;20025;-39
2022/01/03 04:30:44;;;;;;;15.27;6.65;;;2.80;87.90;;;;;;5056105;28;20067;-36
2022/01/03 04:33:10;;;;;;;15.85;7.50;;;2.80;87.80;;;;;;5056060;28;20033;-37
2022/01/03 04:35:38;;;;;;;10.40;6.38;;;2.80;87.80;;;;;;5054983;28;20045;-39
2022/01/03 04:38:04;;;;;;;13.45;6.75;;;2.80;87.80;;;;;;5056094;28;20318;-38
2022/01/03 04:40:30;;;;;;;11.70;6.80;;;2.80;87.80;;;;;;5055949;28;20167;-37
2022/01/03 04:42:55;;;;;;;13.05;7.50;;;2.90;87.80;;;;;;5055583;28;20063;-36
2022/01/03 04:45:21;;;;;;;13.13;7.60;;;2.90;87.80;;;;;;5055894;28;20468;-38
2022/01/03 04:47:47;;;;;;;16.73;7.95;;;2.90;87.80;;;;;;5055847;28;20029;-39
2022/01/03 04:50:13;;;;;;;14.07;7.13;;;2.90;87.70;;;;;;5056174;28;20039;-36
2022/01/03 04:52:38;;;;;;;13.68;6.90;;;3.00;87.80;;;;;;5056175;28;20401;-36
2022/01/03 04:55:05;;;;;;;13.13;7.50;;;2.90;87.70;;;;;;5056004;28;20372;-38
2022/01/03 04:57:31;;;;;;;12.25;7.25;;;3.00;87.70;;;;;;5055909;28;20075;-36
2022/01/03 04:59:56;;;;;;;13.50;7.45;;;3.00;87.60;;;;;;5056236;28;20029;-37
2022/01/03 05:02:22;;;;;;;11.85;7.63;;;3.00;87.60;;;;;;5056070;28;20029;-37
2022/01/03 05:04:48;;;;;;;11.05;6.97;;;3.00;87.50;;;;;;5056070;28;20024;-38
2022/01/03 05:07:13;;;;;;;13.10;7.40;;;3.00;87.50;;;;;;5055948;28;20374;-39
2022/01/03 05:09:39;;;;;;;11.80;7.65;;;3.10;87.50;;;;;;5056066;28;20036;-38
2022/01/03 05:12:05;;;;;;;12.32;8.02;;;3.10;87.40;;;;;;5055608;28;20037;-39
2022/01/03 05:14:31;;;;;;;12.35;7.38;;;3.10;87.30;;;;;;5055778;28;20029;-38
2022/01/03 05:16:57;;;;;;;15.20;8.38;;;3.10;87.20;;;;;;5055330;28;20440;-36
2022/01/03 05:19:24;;;;;;;14.77;8.50;;;3.10;87.20;;;;;;5055792;28;20033;-36
2022/01/03 05:21:51;;;;;;;13.32;8.30;;;3.10;87.10;;;;;;5055588;28;20107;-39
2022/01/03 05:24:17;;;;;;;13.90;8.48;;;3.20;87.00;;;;;;5055942;28;20029;-37
2022/01/03 05:26:43;;;;;;;14.80;8.85;;;3.20;87.00;;;;;;5055391;28;20040;-39
2022/01/03 05:29:08;;;;;;;13.70;8.38;;;3.20;87.00;;;;;;5055902;28;20025;-37
2022/01/03 05:31:34;;;;;;;14.80;8.50;;;3.20;87.00;;;;;;5055387;28;20037;-38
2022/01/03 05:34:00;;;;;;;12.77;8.23;;;3.20;86.90;;;;;;5058960;28;20021;-39
2022/01/03 05:36:26;;;;;;;15.35;8.65;;;3.20;86.90;;;;;;5059492;28;20063;-38
2022/01/03 05:38:52;;;;;;;12.88;8.38;;;3.30;86.80;;;;;;5059314;28;20029;-36
2022/01/03 05:41:18;;;;;;;14.82;9.25;;;3.30;86.70;;;;;;5058028;28;20360;-38
2022/01/03 05:43:44;;;;;;;15.48;9.38;;;3.30;86.70;;;;;;5059201;28;20300;-39
2022/01/03 05:46:10;;;;;;;14.88;9.25;;;3.30;86.50;;;;;;5058761;28;20079;-39
2022/01/03 05:48:36;;;;;;;15.43;8.88;;;3.30;86.60;;;;;;5058858;28;20138;-39
2022/01/03 05:51:02;;;;;;;15.23;8.95;;;3.30;86.60;;;;;;5058683;28;20417;-39
2022/01/03 05:53:29;;;;;;;17.38;9.73;;;3.40;86.50;;;;;;5058891;28;20037;-36
2022/01/03 05:55:55;;;;;;;34.05;15.82;;;3.40;86.40;;;;;;5058565;28;20330;-38
2022/01/03 05:58:20;;;;;;;16.55;10.15;;;3.40;86.30;;;;;;5058702;28;20021;-38
2022/01/03 06:00:47;;;;;;;15.48;8.30;;;3.40;86.20;;;;;;5058474;28;20290;-37
2022/01/03 06:03:14;;;;;;;18.73;10.38;;;3.40;86.10;;;;;;5059099;28;20154;-38
2022/01/03 06:06:04;;;;;;;15.60;9.18;;;3.40;86.10;;;;;;5058793;28;20424;-36
2022/01/03 06:08:25;;;;;;;16.90;9.32;;;3.40;86.00;;;;;;5058343;28;20081;-36
2022/01/03 06:10:51;;;;;;;30.27;14.85;;;3.40;86.10;;;;;;5058405;28;20029;-37
2022/01/03 06:13:17;;;;;;;26.55;13.93;;;3.40;86.10;;;;;;5058477;28;20036;-37
2022/01/03 06:15:43;;;;;;;16.75;9.40;;;3.40;86.00;;;;;;5058562;28;20037;-39
2022/01/03 06:18:12;;;;;;;17.38;10.80;;;3.40;86.00;;;;;;5058505;28;20317;-37
2022/01/03 06:20:39;;;;;;;21.05;11.40;;;3.40;86.00;;;;;;5058370;28;20025;-36
2022/01/03 06:23:04;;;;;;;23.50;14.38;;;3.40;85.90;;;;;;5058391;28;20021;-37
2022/01/03 06:25:30;;;;;;;20.38;10.50;;;3.40;86.00;;;;;;5058161;28;20032;-39
2022/01/03 06:27:56;;;;;;;15.27;9.30;;;3.40;86.00;;;;;;5058011;28;20433;-37
2022/01/03 06:30:22;;;;;;;14.68;8.63;;;3.40;86.10;;;;;;5058186;28;20128;-38
2022/01/03 06:32:47;;;;;;;14.95;8.80;;;3.40;86.20;;;;;;5057988;28;20027;-39
2022/01/03 06:35:13;;;;;;;16.63;9.77;;;3.40;86.40;;;;;;5057780;28;20124;-36
2022/01/03 06:37:39;;;;;;;14.65;9.05;;;3.40;86.70;;;;;;5057943;28;20021;-37
2022/01/03 06:40:06;;;;;;;15.27;9.98;;;3.40;86.90;;;;;;5058305;28;20022;-36
2022/01/03 06:42:32;;;;;;;13.40;8.43;;;3.40;87.00;;;;;;5057942;28;20033;-39
2022/01/03 06:44:57;;;;;;;17.35;10.48;;;3.40;87.20;;;;;;5057695;28;20033;-39
2022/01/03 06:47:23;;;;;;;18.65;11.27;;;3.50;87.30;;;;;;5057656;28;20029;-37
2022/01/03 06:49:49;;;;;;;18.40;10.32;;;3.50;87.20;;;;;;5058007;28;20037;-36
2022/01/03 06:52:15;;;;;;;13.63;8.82;;;3.50;87.20;;;;;;5057471;28;20367;-39
2022/01/03 06:54:41;;;;;;;15.02;8.80;;;3.60;87.20;;;;;;5057682;28;20033;-36
2022/01/03 06:57:07;;;;;;;15.70;9.85;;;3.60;87.10;;;;;;5057812;28;20321;-39
2022/01/03 06:59:33;;;;;;;17.30;10.23;;;3.70;87.00;;;;;;5057536;28;20415;-38
2022/01/03 07:01:59;;;;;;;18.02;10.70;;;3.80;86.90;;;;;;5057537;28;20189;-37
2022/01/03 07:04:25;;;;;;;21.65;11.95;;;3.80;86.90;;;;;;5057819;28;20155;-36
2022/01/03 07:06:51;;;;;;;15.10;9.02;;;3.80;86.90;;;;;;5057867;28;20405;-39
2022/01/03 07:09:17;;;;;;;23.70;10.23;;;3.90;86.70;;;;;;5057668;28;20029;-36
2022/01/03 07:11:42;;;;;;;16.08;9.73;;;3.90;86.80;;;;;;5057216;28;20079;-37
2022/01/03 07:19:59;;;;;;;16.10;9.48;;;4.10;86.00;;;;;;5057803;28;20040;-36
2022/01/03 07:22:25;;;;;;;21.33;11.00;;;4.20;85.60;;;;;;5057021;28;20029;-39
2022/01/03 07:24:52;;;;;;;21.70;10.43;;;4.20;85.30;;;;;;5057359;28;20449;-38
2022/01/03 07:27:18;;;;;;;18.00;9.80;;;4.20;85.10;;;;;;5056972;28;20029;-39
2022/01/03 07:29:44;;;;;;;17.45;9.30;;;4.30;85.10;;;;;;5057345;28;20037;-37
2022/01/03 07:32:11;;;;;;;16.13;9.93;;;4.30;85.10;;;;;;5056952;28;20332;-37
2022/01/03 07:34:36;;;;;;;17.77;9.88;;;4.30;85.10;;;;;;5056645;28;20033;-36
2022/01/03 07:37:03;;;;;;;17.95;11.98;;;4.40;85.50;;;;;;5057197;28;20112;-38
2022/01/03 07:39:30;;;;;;;20.67;9.95;;;4.40;84.90;;;;;;5056617;28;20036;-37
2022/01/03 07:41:59;;;;;;;16.60;9.73;;;4.40;84.70;;;;;;5056968;28;20033;-37
2022/01/03 07:44:24;;;;;;;19.27;9.60;;;4.40;84.50;;;;;;5056873;28;20056;-35
2022/01/03 07:46:50;;;;;;;33.00;10.93;;;4.40;84.60;;;;;;5056676;28;20040;-36
2022/01/03 07:49:16;;;;;;;17.63;10.38;;;4.50;84.70;;;;;;5057029;28;20123;-35
2022/01/03 07:51:41;;;;;;;18.38;10.18;;;4.50;84.70;;;;;;5056474;28;20317;-38
2022/01/03 07:54:07;;;;;;;17.10;9.77;;;4.60;84.70;;;;;;5056875;28;20398;-35
2022/01/03 07:56:33;;;;;;;18.70;9.85;;;4.60;84.70;;;;;;5055382;28;20448;-36
2022/01/03 07:58:59;;;;;;;15.52;9.50;;;4.60;84.80;;;;;;5056540;28;20032;-36
2022/01/03 08:01:25;;;;;;;17.23;9.70;;;4.70;84.60;;;;;;5056155;28;20025;-36
2022/01/03 08:03:50;;;;;;;18.65;9.82;;;4.70;84.70;;;;;;5056456;28;20115;-37
2022/01/03 08:06:16;;;;;;;18.63;10.05;;;4.80;84.60;;;;;;5056102;28;20056;-35
2022/01/03 08:08:42;;;;;;;19.92;11.20;;;4.90;84.90;;;;;;5056271;28;20393;-38
2022/01/03 08:11:07;;;;;;;18.30;9.90;;;4.90;85.00;;;;;;5056112;28;20037;-35
2022/01/03 08:13:33;;;;;;;15.57;9.40;;;5.00;85.10;;;;;;5056267;28;20108;-37
2022/01/03 08:15:59;;;;;;;22.83;10.52;;;5.10;85.00;;;;;;5056200;28;20039;-36
2022/01/03 08:18:24;;;;;;;16.60;9.02;;;5.20;85.10;;;;;;5056171;28;20029;-36
2022/01/03 08:20:53;;;;;;;14.98;9.18;;;5.30;85.00;;;;;;5056187;28;20029;-35
2022/01/03 08:23:18;;;;;;;16.73;9.10;;;5.40;85.00;;;;;;5056218;28;20057;-35
2022/01/03 08:25:44;;;;;;;18.77;9.75;;;5.40;84.40;;;;;;5055877;28;20075;-38
2022/01/03 08:28:10;;;;;;;18.17;9.38;;;5.50;84.10;;;;;;5055862;28;20037;-38
2022/01/03 08:30:36;;;;;;;21.50;11.77;;;5.50;83.80;;;;;;5056114;28;20062;-35
2022/01/03 08:33:03;;;;;;;19.13;11.18;;;5.60;83.50;;;;;;5055545;28;20037;-36
2022/01/03 08:35:29;;;;;;;20.75;10.98;;;5.60;83.40;;;;;;5055943;28;20307;-37
2022/01/03 08:37:55;;;;;;;21.75;10.30;;;5.70;83.40;;;;;;5055542;28;20086;-36
2022/01/03 08:40:20;;;;;;;16.58;10.02;;;5.70;83.20;;;;;;5055885;28;20083;-36
2022/01/03 08:42:46;;;;;;;24.05;12.00;;;5.80;82.90;;;;;;5055513;28;20033;-36
2022/01/03 08:45:13;;;;;;;19.13;10.30;;;5.80;82.70;;;;;;5055992;28;20044;-36
2022/01/03 08:47:39;;;;;;;20.17;10.00;;;5.90;82.50;;;;;;5055882;28;20049;-37
2022/01/03 08:50:06;;;;;;;22.05;11.30;;;6.00;82.40;;;;;;5056016;28;20041;-39
2022/01/03 08:52:32;;;;;;;18.05;10.15;;;6.00;82.00;;;;;;5055974;28;20425;-38
2022/01/03 08:54:58;;;;;;;20.92;10.43;;;6.00;81.90;;;;;;5055687;28;20068;-36
2022/01/03 08:57:24;;;;;;;18.33;10.10;;;6.10;81.70;;;;;;5055690;28;20033;-38
2022/01/03 08:59:50;;;;;;;18.58;10.38;;;6.10;81.50;;;;;;5055854;28;20049;-36
2022/01/03 09:02:16;;;;;;;19.55;10.15;;;6.20;81.40;;;;;;5055481;28;20130;-38
2022/01/03 09:04:46;;;;;;;21.00;9.95;;;6.20;81.30;;;;;;5055730;28;20029;-36
2022/01/03 09:07:12;;;;;;;19.63;11.20;;;6.20;81.00;;;;;;5057810;28;20417;-36
2022/01/03 09:09:38;;;;;;;21.80;12.10;;;6.20;80.90;;;;;;5059716;28;20100;-38
2022/01/03 09:12:06;;;;;;;22.55;12.95;;;6.20;80.60;;;;;;5059552;28;20039;-36
2022/01/03 09:14:33;;;;;;;23.48;13.07;;;6.30;80.40;;;;;;5059552;28;20033;-39
2022/01/03 09:16:58;;;;;;;20.33;11.07;;;6.30;80.40;;;;;;5059275;28;20021;-36
2022/01/03 09:19:24;;;;;;;18.88;10.82;;;6.30;80.30;;;;;;5059721;28;20029;-37
2022/01/03 09:21:50;;;;;;;23.60;11.57;;;6.30;80.00;;;;;;5059780;28;20060;-37
2022/01/03 09:24:26;;;;;;;26.52;11.38;;;6.20;80.10;;;;;;5059759;28;20465;-36
2022/01/03 09:29:36;;;;;;;17.63;9.57;;;6.20;80.30;;;;;;5059490;28;20087;-36
2022/01/03 09:32:03;;;;;;;17.67;9.63;;;6.30;80.50;;;;;;5059386;28;20360;-37
2022/01/03 09:34:29;;;;;;;20.08;9.85;;;6.30;80.60;;;;;;5059278;28;20150;-36
2022/01/03 09:36:55;;;;;;;17.35;9.50;;;6.30;80.50;;;;;;5059272;28;20055;-35
2022/01/03 09:39:20;;;;;;;13.43;8.25;;;6.40;80.70;;;;;;5059128;28;20036;-36
2022/01/03 09:42:04;;;;;;;17.27;8.15;;;6.40;80.90;;;;;;5059223;28;20033;-39
2022/01/03 09:44:32;;;;;;;14.55;8.23;;;6.50;80.90;;;;;;5044035;28;20040;-39
2022/01/03 09:47:03;;;;;;;20.15;9.45;;;6.60;81.00;;;;;;5037315;28;20382;-38
2022/01/03 09:49:35;;;;;;;23.60;9.77;;;6.70;81.00;;;;;;5035595;28;20033;-36
2022/01/03 09:52:03;;;;;;;18.73;9.77;;;6.80;81.00;;;;;;5038811;28;20048;-36
2022/01/03 09:54:29;;;;;;;23.15;9.25;;;6.80;80.70;;;;;;5038089;28;20037;-42
2022/01/03 09:56:58;;;;;;;12.48;7.78;;;6.90;80.70;;;;;;5038068;28;20469;-39
2022/01/03 09:59:25;;;;;;;41.78;24.85;;;7.00;80.50;;;;;;5037956;28;20045;-39
2022/01/03 10:01:52;;;;;;;23.52;8.30;;;7.10;80.40;;;;;;5037851;28;20036;-39
2022/01/03 10:04:18;;;;;;;11.70;6.65;;;7.10;80.10;;;;;;5037921;28;20167;-39
2022/01/03 10:06:44;;;;;;;13.13;6.88;;;7.20;80.00;;;;;;5038181;28;20100;-36
2022/01/03 10:09:10;;;;;;;11.88;6.90;;;7.30;79.90;;;;;;5037952;28;20358;-36
2022/01/03 10:11:36;;;;;;;11.82;7.20;;;7.40;79.70;;;;;;5038152;28;20033;-39
2022/01/03 10:14:02;;;;;;;18.95;10.35;;;7.50;79.40;;;;;;5046077;28;20029;-37
2022/01/03 10:16:28;;;;;;;14.48;6.93;;;7.50;79.70;;;;;;5057859;28;20366;-39
2022/01/03 10:18:54;;;;;;;15.82;6.80;;;7.60;79.00;;;;;;5056174;28;20040;-39
2022/01/03 10:21:41;;;;;;;10.60;6.65;;;7.60;78.70;;;;;;5057755;28;20317;-38
2022/01/03 10:24:08;;;;;;;12.30;6.68;;;7.70;78.20;;;;;;5058131;28;20057;-36
2022/01/03 10:26:36;;;;;;;11.30;6.88;;;7.80;78.30;;;;;;5057798;28;20040;-36
2022/01/03 10:29:21;;;;;;;12.82;6.75;;;7.80;78.70;;;;;;5058024;28;20052;-38
2022/01/03 10:31:49;;;;;;;15.50;7.50;;;7.90;78.00;;;;;;5058115;28;20029;-36
2022/01/03 10:34:17;;;;;;;11.15;6.55;;;7.90;77.90;;;;;;5057545;28;20116;-36
2022/01/03 10:36:45;;;;;;;13.70;6.53;;;8.00;77.70;;;;;;5057852;28;20029;-36
2022/01/03 10:39:34;;;;;;;14.23;6.32;;;8.00;77.50;;;;;;5057821;28;20029;-36
2022/01/03 10:42:18;;;;;;;22.75;8.35;;;8.10;77.30;;;;;;5057875;28;20029;-36
2022/01/03 10:44:45;;;;;;;14.57;8.95;;;8.20;77.30;;;;;;5057594;28;20418;-38
2022/01/03 10:47:14;;;;;;;17.88;7.32;;;8.20;77.40;;;;;;5057397;28;20033;-39
2022/01/03 10:49:41;;;;;;;19.00;9.15;;;8.20;77.30;;;;;;5057498;28;20037;-36
2022/01/03 10:52:17;;;;;;;14.75;7.65;;;8.30;77.00;;;;;;5057414;28;20029;-36
2022/01/03 10:54:45;;;;;;;13.73;6.85;;;8.30;76.70;;;;;;5057169;28;20045;-39
2022/01/03 10:57:11;;;;;;;14.32;7.53;;;8.40;76.70;;;;;;5057737;28;20060;-39
2022/01/03 10:59:38;;;;;;;14.75;8.07;;;8.40;76.60;;;;;;5057471;28;20362;-36
2022/01/03 11:02:07;;;;;;;30.20;9.90;;;8.50;76.60;;;;;;5057166;28;20025;-39
2022/01/03 11:13:16;;;;;;;15.15;7.63;;;8.60;76.10;;;;;;5057105;28;20043;-38
2022/01/03 11:15:51;;;;;;;15.95;8.05;;;8.60;75.90;;;;;;5056937;28;20033;-38
2022/01/03 11:18:30;;;;;;;21.65;9.25;;;8.60;75.90;;;;;;5057254;28;20029;-36
2022/01/03 11:21:16;;;;;;;13.65;8.00;;;8.60;75.90;;;;;;5056389;28;20432;-35
2022/01/03 11:23:49;;;;;;;12.57;6.88;;;8.70;75.80;;;;;;5057131;28;20033;-37
2022/01/03 11:26:18;;;;;;;10.32;5.95;;;8.70;75.80;;;;;;5053980;28;20037;-35
2022/01/03 11:28:44;;;;;;;14.75;6.85;;;8.70;75.80;;;;;;5056953;28;20112;-35
2022/01/03 11:31:12;;;;;;;13.60;7.13;;;8.70;75.80;;;;;;5043709;28;20033;-38
2022/01/03 11:33:40;;;;;;;12.95;7.03;;;8.80;75.70;;;;;;5036814;28;20037;-38
2022/01/03 11:36:06;;;;;;;10.00;5.82;;;8.80;75.60;;;;;;5035917;28;20112;-38
2022/01/03 11:38:36;;;;;;;15.57;8.63;;;8.80;75.70;;;;;;5036683;28;20029;-38
2022/01/03 11:41:06;;;;;;;12.20;6.47;;;8.80;75.50;;;;;;5036371;28;20405;-36
2022/01/03 11:43:34;;;;;;;13.52;6.30;;;8.90;75.50;;;;;;5036900;28;20061;-35
2022/01/03 11:46:00;;;;;;;14.85;6.40;;;8.90;75.50;;;;;;5036244;28;20325;-39
2022/01/03 11:48:26;;;;;;;11.30;6.45;;;8.90;75.50;;;;;;5036325;28;20073;-35
2022/01/03 11:51:02;;;;;;;11.20;6.35;;;8.90;75.20;;;;;;5072287;28;20452;-35
2022/01/03 11:53:33;;;;;;;13.30;6.55;;;9.00;75.20;;;;;;5073019;28;20040;-36
2022/01/03 11:56:04;;;;;;;11.38;5.97;;;9.00;75.10;;;;;;5072474;28;20417;-39
2022/01/03 11:59:03;;;;;;;16.80;8.07;;;9.00;75.00;;;;;;5072682;28;20075;-36
2022/01/03 12:04:35;;;;;;;23.20;7.85;;;9.10;75.00;;;;;;5065337;28;20423;-36
2022/01/03 12:07:15;;;;;;;10.98;5.88;;;9.10;75.00;;;;;;5052619;28;20044;-36
2022/01/03 12:09:53;;;;;;;11.77;7.27;;;9.10;74.80;;;;;;5052213;28;20037;-39
2022/01/03 12:12:34;;;;;;;16.48;9.00;;;9.10;74.80;;;;;;5052339;28;20021;-37
2022/01/03 12:15:02;;;;;;;11.82;5.80;;;9.20;74.80;;;;;;5052256;28;20310;-39
2022/01/03 12:17:47;;;;;;;16.77;6.85;;;9.10;74.70;;;;;;5052417;28;20120;-38
2022/01/03 12:20:13;;;;;;;35.28;19.08;;;9.20;74.70;;;;;;5052339;28;20087;-39
2022/01/03 12:22:53;;;;;;;9.18;6.03;;;9.20;74.80;;;;;;5052725;28;20083;-38
2022/01/03 12:25:30;;;;;;;9.50;5.93;;;9.20;74.60;;;;;;5052195;28;20040;-38
2022/01/03 12:27:57;;;;;;;10.27;5.53;;;9.20;74.50;;;;;;5052232;28;20029;-39
2022/01/03 12:30:27;;;;;;;11.23;6.47;;;9.20;74.50;;;;;;5051771;28;20036;-40
2022/01/03 12:33:08;;;;;;;8.80;5.45;;;9.20;74.50;;;;;;5052557;28;20321;-38
2022/01/03 12:35:37;;;;;;;10.95;5.75;;;9.20;74.40;;;;;;5051610;28;20033;-38
2022/01/03 12:38:03;;;;;;;12.88;6.50;;;9.20;74.50;;;;;;5051988;28;20112;-38
2022/01/03 12:40:32;;;;;;;10.27;5.50;;;9.20;74.60;;;;;;5051975;28;20129;-40
2022/01/03 12:43:01;;;;;;;9.07;5.38;;;9.20;74.60;;;;;;5052069;28;20330;-37
2022/01/03 12:45:29;;;;;;;10.65;5.55;;;9.20;74.70;;;;;;5051521;28;20040;-38
2022/01/03 12:48:10;;;;;;;12.02;5.57;;;9.20;74.70;;;;;;5051919;28;20091;-38
2022/01/03 12:50:44;;;;;;;7.78;5.20;;;9.20;74.60;;;;;;5051448;28;20053;-40
2022/01/03 12:53:32;;;;;;;12.98;6.47;;;9.20;74.50;;;;;;5052179;28;20056;-38
2022/01/03 12:56:03;;;;;;;10.13;5.07;;;9.20;74.50;;;;;;5051257;28;20113;-40
2022/01/03 12:58:28;;;;;;;11.07;5.88;;;9.20;74.60;;;;;;5051647;28;20017;-38
2022/01/03 13:00:59;;;;;;;9.43;5.65;;;9.20;74.60;;;;;;5046482;28;20033;-37
2022/01/03 13:03:43;;;;;;;7.57;4.95;;;9.20;74.60;;;;;;5038875;28;20107;-37
2022/01/03 13:06:25;;;;;;;11.50;5.47;;;9.20;74.60;;;;;;5038131;28;20061;-39
2022/01/03 13:08:57;;;;;;;12.90;5.88;;;9.20;74.70;;;;;;5038267;28;20044;-38
2022/01/03 13:11:35;;;;;;;9.88;5.72;;;9.20;74.70;;;;;;5037262;28;20029;-40
2022/01/03 13:14:07;;;;;;;7.47;4.75;;;9.20;74.70;;;;;;5038688;28;20069;-38
2022/01/03 13:16:36;;;;;;;10.73;5.90;;;9.20;74.70;;;;;;5038409;28;20029;-39
2022/01/03 13:19:06;;;;;;;9.10;5.13;;;9.20;74.60;;;;;;5038272;28;20041;-37